sensor_id;sensor_type;location;lat;lon;timestamp;temperature;humidity
70867;HTU21D;58487;53.474;49.470;2023-08-06T00:00:39;24.24;118.99
70867;HTU21D;58487;53.474;49.470;2023-08-06T00:03:05;24.26;118.99
70867;HTU21D;58487;53.474;49.470;2023-08-06T00:05:31;24.08;118.99
70867;HTU21D;58487;53.474;49.470;2023-08-06T00:07:57;24.12;118.99
70867;HTU21D;58487;53.474;49.470;2023-08-06T00:10:23;24.18;118.99
70867;HTU21D;58487;53.474;49.470;2023-08-06T00:12:49;24.16;118.99
70867;HTU21D;58487;53.474;49.470;2023-08-06T00:15:15;24.15;118.99
70867;HTU21D;58487;53.474;49.470;2023-08-06T00:17:41;24.12;118.99
70867;HTU21D;58487;53.474;49.470;2023-08-06T00:20:08;24.02;118.99
70867;HTU21D;58487;53.474;49.470;2023-08-06T00:22:35;23.97;118.99
70867;HTU21D;58487;53.474;49.470;2023-08-06T00:25:02;23.96;118.99
70867;HTU21D;58487;53.474;49.470;2023-08-06T00:27:28;23.88;118.99
70867;HTU21D;58487;53.474;49.470;2023-08-06T00:29:54;23.80;118.99
70867;HTU21D;58487;53.474;49.470;2023-08-06T00:32:20;23.71;118.99
70867;HTU21D;58487;53.474;49.470;2023-08-06T00:34:52;23.67;118.99
70867;HTU21D;58487;53.474;49.470;2023-08-06T00:37:18;23.61;118.99
70867;HTU21D;58487;53.474;49.470;2023-08-06T00:39:44;23.74;118.99
70867;HTU21D;58487;53.474;49.470;2023-08-06T00:42:13;23.70;118.99
70867;HTU21D;58487;53.474;49.470;2023-08-06T00:44:39;23.70;118.99
70867;HTU21D;58487;53.474;49.470;2023-08-06T00:47:07;23.75;118.99
70867;HTU21D;58487;53.474;49.470;2023-08-06T00:49:34;23.67;118.99
70867;HTU21D;58487;53.474;49.470;2023-08-06T00:52:00;23.70;118.99
70867;HTU21D;58487;53.474;49.470;2023-08-06T00:54:27;23.65;118.99
70867;HTU21D;58487;53.474;49.470;2023-08-06T00:56:53;23.66;118.99
70867;HTU21D;58487;53.474;49.470;2023-08-06T00:59:19;23.66;118.99
70867;HTU21D;58487;53.474;49.470;2023-08-06T01:01:45;23.65;118.99
70867;HTU21D;58487;53.474;49.470;2023-08-06T01:04:12;23.65;118.99
70867;HTU21D;58487;53.474;49.470;2023-08-06T01:06:48;23.64;118.99
70867;HTU21D;58487;53.474;49.470;2023-08-06T01:12:41;23.66;118.99
70867;HTU21D;58487;53.474;49.470;2023-08-06T01:15:16;23.60;118.99
70867;HTU21D;58487;53.474;49.470;2023-08-06T01:17:45;23.55;118.99
70867;HTU21D;58487;53.474;49.470;2023-08-06T01:20:11;23.59;118.99
70867;HTU21D;58487;53.474;49.470;2023-08-06T01:22:37;23.57;118.99
70867;HTU21D;58487;53.474;49.470;2023-08-06T01:25:03;23.56;118.99
70867;HTU21D;58487;53.474;49.470;2023-08-06T01:30:12;23.44;118.99
70867;HTU21D;58487;53.474;49.470;2023-08-06T01:32:46;23.43;118.99
70867;HTU21D;58487;53.474;49.470;2023-08-06T01:35:21;23.45;118.99
70867;HTU21D;58487;53.474;49.470;2023-08-06T01:37:48;23.44;118.99
70867;HTU21D;58487;53.474;49.470;2023-08-06T01:40:14;23.34;118.99
70867;HTU21D;58487;53.474;49.470;2023-08-06T01:42:40;23.32;118.99
70867;HTU21D;58487;53.474;49.470;2023-08-06T01:45:08;23.36;118.99
70867;HTU21D;58487;53.474;49.470;2023-08-06T01:47:34;23.35;118.99
70867;HTU21D;58487;53.474;49.470;2023-08-06T01:50:00;23.39;118.99
70867;HTU21D;58487;53.474;49.470;2023-08-06T01:52:27;23.29;118.99
70867;HTU21D;58487;53.474;49.470;2023-08-06T01:54:53;23.30;118.99
70867;HTU21D;58487;53.474;49.470;2023-08-06T01:57:19;23.26;118.99
70867;HTU21D;58487;53.474;49.470;2023-08-06T01:59:45;23.23;118.99
70867;HTU21D;58487;53.474;49.470;2023-08-06T02:02:11;23.24;118.99
70867;HTU21D;58487;53.474;49.470;2023-08-06T02:04:36;23.17;118.99
70867;HTU21D;58487;53.474;49.470;2023-08-06T02:07:02;23.15;118.99
70867;HTU21D;58487;53.474;49.470;2023-08-06T02:09:29;23.06;118.99
70867;HTU21D;58487;53.474;49.470;2023-08-06T02:11:54;22.99;118.99
70867;HTU21D;58487;53.474;49.470;2023-08-06T02:14:20;22.98;118.99
70867;HTU21D;58487;53.474;49.470;2023-08-06T02:16:46;22.95;118.99
70867;HTU21D;58487;53.474;49.470;2023-08-06T02:19:12;22.97;118.99
70867;HTU21D;58487;53.474;49.470;2023-08-06T02:21:38;22.91;118.99
70867;HTU21D;58487;53.474;49.470;2023-08-06T02:24:04;22.95;118.99
70867;HTU21D;58487;53.474;49.470;2023-08-06T02:26:30;22.92;118.99
70867;HTU21D;58487;53.474;49.470;2023-08-06T02:28:56;22.84;118.99
70867;HTU21D;58487;53.474;49.470;2023-08-06T02:31:22;22.76;118.99
70867;HTU21D;58487;53.474;49.470;2023-08-06T02:33:53;22.81;118.99
70867;HTU21D;58487;53.474;49.470;2023-08-06T02:36:19;22.79;118.99
70867;HTU21D;58487;53.474;49.470;2023-08-06T02:38:45;22.71;118.99
70867;HTU21D;58487;53.474;49.470;2023-08-06T02:41:11;22.83;118.99
70867;HTU21D;58487;53.474;49.470;2023-08-06T02:43:37;22.91;118.99
70867;HTU21D;58487;53.474;49.470;2023-08-06T02:46:03;22.90;118.99
70867;HTU21D;58487;53.474;49.470;2023-08-06T02:48:29;22.88;118.99
70867;HTU21D;58487;53.474;49.470;2023-08-06T02:50:58;23.03;118.99
70867;HTU21D;58487;53.474;49.470;2023-08-06T02:53:28;23.00;118.99
70867;HTU21D;58487;53.474;49.470;2023-08-06T02:55:53;22.83;118.99
70867;HTU21D;58487;53.474;49.470;2023-08-06T02:58:20;22.86;118.99
70867;HTU21D;58487;53.474;49.470;2023-08-06T03:01:03;22.82;118.99
70867;HTU21D;58487;53.474;49.470;2023-08-06T03:03:33;22.76;118.99
70867;HTU21D;58487;53.474;49.470;2023-08-06T03:05:59;22.87;118.99
70867;HTU21D;58487;53.474;49.470;2023-08-06T03:08:26;22.96;118.99
70867;HTU21D;58487;53.474;49.470;2023-08-06T03:10:52;23.11;118.99
70867;HTU21D;58487;53.474;49.470;2023-08-06T03:13:18;23.16;118.99
70867;HTU21D;58487;53.474;49.470;2023-08-06T03:15:55;23.30;118.99
70867;HTU21D;58487;53.474;49.470;2023-08-06T03:18:22;23.29;118.99
70867;HTU21D;58487;53.474;49.470;2023-08-06T03:20:48;23.29;118.99
70867;HTU21D;58487;53.474;49.470;2023-08-06T03:23:15;23.24;118.99
70867;HTU21D;58487;53.474;49.470;2023-08-06T03:25:41;23.31;118.99
70867;HTU21D;58487;53.474;49.470;2023-08-06T03:28:07;23.45;118.99
70867;HTU21D;58487;53.474;49.470;2023-08-06T03:30:33;23.57;118.99
70867;HTU21D;58487;53.474;49.470;2023-08-06T03:32:59;23.69;118.99
70867;HTU21D;58487;53.474;49.470;2023-08-06T03:35:30;23.59;118.99
70867;HTU21D;58487;53.474;49.470;2023-08-06T03:37:56;23.49;118.99
70867;HTU21D;58487;53.474;49.470;2023-08-06T03:40:22;23.51;118.99
70867;HTU21D;58487;53.474;49.470;2023-08-06T03:42:48;23.49;118.99
70867;HTU21D;58487;53.474;49.470;2023-08-06T03:45:14;23.61;118.99
70867;HTU21D;58487;53.474;49.470;2023-08-06T03:47:40;23.76;118.99
70867;HTU21D;58487;53.474;49.470;2023-08-06T03:50:06;23.91;118.99
70867;HTU21D;58487;53.474;49.470;2023-08-06T03:52:33;23.97;118.99
70867;HTU21D;58487;53.474;49.470;2023-08-06T03:54:58;24.06;118.99
70867;HTU21D;58487;53.474;49.470;2023-08-06T03:57:24;24.14;118.99
70867;HTU21D;58487;53.474;49.470;2023-08-06T03:59:50;24.15;118.99
70867;HTU21D;58487;53.474;49.470;2023-08-06T04:02:16;24.19;118.99
70867;HTU21D;58487;53.474;49.470;2023-08-06T04:04:42;24.30;118.99
70867;HTU21D;58487;53.474;49.470;2023-08-06T04:07:09;24.42;118.99
70867;HTU21D;58487;53.474;49.470;2023-08-06T04:09:51;24.51;118.99
70867;HTU21D;58487;53.474;49.470;2023-08-06T04:12:18;24.62;118.99
70867;HTU21D;58487;53.474;49.470;2023-08-06T04:14:44;24.69;118.99
70867;HTU21D;58487;53.474;49.470;2023-08-06T04:17:10;24.72;118.99
70867;HTU21D;58487;53.474;49.470;2023-08-06T04:19:36;24.90;118.99
70867;HTU21D;58487;53.474;49.470;2023-08-06T04:22:02;24.99;118.99
70867;HTU21D;58487;53.474;49.470;2023-08-06T04:24:28;24.92;118.99
70867;HTU21D;58487;53.474;49.470;2023-08-06T04:26:53;24.98;118.99
70867;HTU21D;58487;53.474;49.470;2023-08-06T04:29:19;25.08;118.99
70867;HTU21D;58487;53.474;49.470;2023-08-06T04:31:45;25.17;118.99
70867;HTU21D;58487;53.474;49.470;2023-08-06T04:34:16;25.30;118.99
70867;HTU21D;58487;53.474;49.470;2023-08-06T04:36:42;25.35;118.99
70867;HTU21D;58487;53.474;49.470;2023-08-06T04:39:08;25.35;118.99
70867;HTU21D;58487;53.474;49.470;2023-08-06T04:41:34;25.38;118.99
70867;HTU21D;58487;53.474;49.470;2023-08-06T04:44:00;25.36;118.99
70867;HTU21D;58487;53.474;49.470;2023-08-06T04:46:26;25.40;118.99
70867;HTU21D;58487;53.474;49.470;2023-08-06T04:48:52;25.46;118.99
70867;HTU21D;58487;53.474;49.470;2023-08-06T04:51:18;25.56;118.99
70867;HTU21D;58487;53.474;49.470;2023-08-06T04:53:44;25.69;118.99
70867;HTU21D;58487;53.474;49.470;2023-08-06T04:56:10;25.64;118.99
70867;HTU21D;58487;53.474;49.470;2023-08-06T04:58:36;25.77;118.99
70867;HTU21D;58487;53.474;49.470;2023-08-06T05:01:02;25.91;118.99
70867;HTU21D;58487;53.474;49.470;2023-08-06T05:03:28;25.96;118.99
70867;HTU21D;58487;53.474;49.470;2023-08-06T05:05:54;25.93;118.99
70867;HTU21D;58487;53.474;49.470;2023-08-06T05:08:20;26.08;118.99
70867;HTU21D;58487;53.474;49.470;2023-08-06T05:10:46;26.07;118.99
70867;HTU21D;58487;53.474;49.470;2023-08-06T05:13:12;26.18;118.99
70867;HTU21D;58487;53.474;49.470;2023-08-06T05:15:39;26.21;118.99
70867;HTU21D;58487;53.474;49.470;2023-08-06T05:18:08;26.27;118.99
70867;HTU21D;58487;53.474;49.470;2023-08-06T05:20:38;26.30;118.99
70867;HTU21D;58487;53.474;49.470;2023-08-06T05:23:04;26.38;118.99
70867;HTU21D;58487;53.474;49.470;2023-08-06T05:25:30;26.32;118.99
70867;HTU21D;58487;53.474;49.470;2023-08-06T05:27:56;26.46;118.99
70867;HTU21D;58487;53.474;49.470;2023-08-06T05:30:22;26.47;118.99
70867;HTU21D;58487;53.474;49.470;2023-08-06T05:32:48;26.55;118.99
70867;HTU21D;58487;53.474;49.470;2023-08-06T05:35:19;26.71;118.99
70867;HTU21D;58487;53.474;49.470;2023-08-06T05:37:45;26.67;118.99
70867;HTU21D;58487;53.474;49.470;2023-08-06T05:40:11;26.64;118.99
70867;HTU21D;58487;53.474;49.470;2023-08-06T05:42:37;26.72;118.99
70867;HTU21D;58487;53.474;49.470;2023-08-06T05:45:03;26.71;118.99
70867;HTU21D;58487;53.474;49.470;2023-08-06T05:47:29;26.66;118.99
70867;HTU21D;58487;53.474;49.470;2023-08-06T05:49:55;26.54;118.99
70867;HTU21D;58487;53.474;49.470;2023-08-06T05:52:21;26.46;118.99
70867;HTU21D;58487;53.474;49.470;2023-08-06T05:54:47;26.56;118.99
70867;HTU21D;58487;53.474;49.470;2023-08-06T05:57:13;26.64;118.99
70867;HTU21D;58487;53.474;49.470;2023-08-06T05:59:40;26.68;118.99
70867;HTU21D;58487;53.474;49.470;2023-08-06T06:02:06;26.76;118.99
70867;HTU21D;58487;53.474;49.470;2023-08-06T06:04:32;26.84;118.99
70867;HTU21D;58487;53.474;49.470;2023-08-06T06:06:58;26.96;118.99
70867;HTU21D;58487;53.474;49.470;2023-08-06T06:09:24;26.94;118.99
70867;HTU21D;58487;53.474;49.470;2023-08-06T06:11:50;26.76;118.99
70867;HTU21D;58487;53.474;49.470;2023-08-06T06:14:20;26.81;118.99
70867;HTU21D;58487;53.474;49.470;2023-08-06T06:16:46;26.89;118.99
70867;HTU21D;58487;53.474;49.470;2023-08-06T06:19:12;26.77;118.99
70867;HTU21D;58487;53.474;49.470;2023-08-06T06:21:38;26.82;118.99
70867;HTU21D;58487;53.474;49.470;2023-08-06T06:24:05;26.86;118.99
70867;HTU21D;58487;53.474;49.470;2023-08-06T06:26:32;27.04;118.99
70867;HTU21D;58487;53.474;49.470;2023-08-06T06:28:58;27.14;118.99
70867;HTU21D;58487;53.474;49.470;2023-08-06T06:31:24;27.27;118.99
70867;HTU21D;58487;53.474;49.470;2023-08-06T06:33:55;27.39;118.99
70867;HTU21D;58487;53.474;49.470;2023-08-06T06:36:21;27.36;118.99
70867;HTU21D;58487;53.474;49.470;2023-08-06T06:38:47;27.32;118.99
70867;HTU21D;58487;53.474;49.470;2023-08-06T06:41:15;27.29;118.99
70867;HTU21D;58487;53.474;49.470;2023-08-06T06:43:41;27.35;118.99
70867;HTU21D;58487;53.474;49.470;2023-08-06T06:46:07;27.15;118.99
70867;HTU21D;58487;53.474;49.470;2023-08-06T06:48:33;27.21;118.99
70867;HTU21D;58487;53.474;49.470;2023-08-06T06:50:59;27.29;118.99
70867;HTU21D;58487;53.474;49.470;2023-08-06T06:53:26;27.34;118.99
70867;HTU21D;58487;53.474;49.470;2023-08-06T06:56:02;27.35;118.99
70867;HTU21D;58487;53.474;49.470;2023-08-06T06:58:30;27.42;118.99
70867;HTU21D;58487;53.474;49.470;2023-08-06T07:00:56;27.57;118.99
70867;HTU21D;58487;53.474;49.470;2023-08-06T07:03:22;27.59;118.99
70867;HTU21D;58487;53.474;49.470;2023-08-06T07:05:49;27.43;118.99
70867;HTU21D;58487;53.474;49.470;2023-08-06T07:08:16;27.67;118.99
70867;HTU21D;58487;53.474;49.470;2023-08-06T07:10:42;27.65;118.99
70867;HTU21D;58487;53.474;49.470;2023-08-06T07:13:09;27.37;118.99
70867;HTU21D;58487;53.474;49.470;2023-08-06T07:15:36;27.38;118.99
70867;HTU21D;58487;53.474;49.470;2023-08-06T07:18:02;27.56;118.99
70867;HTU21D;58487;53.474;49.470;2023-08-06T07:20:28;27.78;118.99
70867;HTU21D;58487;53.474;49.470;2023-08-06T07:22:59;27.78;118.99
70867;HTU21D;58487;53.474;49.470;2023-08-06T07:25:25;27.80;118.99
70867;HTU21D;58487;53.474;49.470;2023-08-06T07:27:50;27.81;118.99
70867;HTU21D;58487;53.474;49.470;2023-08-06T07:30:17;27.88;118.99
70867;HTU21D;58487;53.474;49.470;2023-08-06T07:32:43;27.83;118.99
70867;HTU21D;58487;53.474;49.470;2023-08-06T07:35:14;28.05;118.99
70867;HTU21D;58487;53.474;49.470;2023-08-06T07:37:40;28.05;118.99
70867;HTU21D;58487;53.474;49.470;2023-08-06T07:40:07;28.12;118.99
70867;HTU21D;58487;53.474;49.470;2023-08-06T07:42:33;28.09;118.99
70867;HTU21D;58487;53.474;49.470;2023-08-06T07:44:59;28.02;118.99
70867;HTU21D;58487;53.474;49.470;2023-08-06T07:47:25;28.08;118.99
70867;HTU21D;58487;53.474;49.470;2023-08-06T07:49:51;27.87;118.99
70867;HTU21D;58487;53.474;49.470;2023-08-06T07:52:18;27.97;118.99
70867;HTU21D;58487;53.474;49.470;2023-08-06T07:54:44;28.24;118.99
70867;HTU21D;58487;53.474;49.470;2023-08-06T07:57:10;28.44;118.99
70867;HTU21D;58487;53.474;49.470;2023-08-06T07:59:36;28.56;118.99
70867;HTU21D;58487;53.474;49.470;2023-08-06T08:02:02;28.61;118.99
70867;HTU21D;58487;53.474;49.470;2023-08-06T08:04:28;28.72;118.99
70867;HTU21D;58487;53.474;49.470;2023-08-06T08:06:54;28.88;118.99
70867;HTU21D;58487;53.474;49.470;2023-08-06T08:09:20;28.76;118.99
70867;HTU21D;58487;53.474;49.470;2023-08-06T08:11:46;28.76;118.99
70867;HTU21D;58487;53.474;49.470;2023-08-06T08:14:13;28.49;118.99
70867;HTU21D;58487;53.474;49.470;2023-08-06T08:16:38;28.75;118.99
70867;HTU21D;58487;53.474;49.470;2023-08-06T08:19:04;28.70;118.99
70867;HTU21D;58487;53.474;49.470;2023-08-06T08:21:30;28.88;118.99
70867;HTU21D;58487;53.474;49.470;2023-08-06T08:23:58;28.64;118.99
70867;HTU21D;58487;53.474;49.470;2023-08-06T08:26:24;28.45;118.99
70867;HTU21D;58487;53.474;49.470;2023-08-06T08:28:50;28.52;118.99
70867;HTU21D;58487;53.474;49.470;2023-08-06T08:31:16;28.59;118.99
70867;HTU21D;58487;53.474;49.470;2023-08-06T08:33:47;28.87;118.99
70867;HTU21D;58487;53.474;49.470;2023-08-06T08:36:13;28.85;118.99
70867;HTU21D;58487;53.474;49.470;2023-08-06T08:38:39;29.04;118.99
70867;HTU21D;58487;53.474;49.470;2023-08-06T08:41:05;29.05;118.99
70867;HTU21D;58487;53.474;49.470;2023-08-06T08:43:32;29.07;118.99
70867;HTU21D;58487;53.474;49.470;2023-08-06T08:45:59;29.03;118.99
70867;HTU21D;58487;53.474;49.470;2023-08-06T08:48:26;28.83;118.99
70867;HTU21D;58487;53.474;49.470;2023-08-06T08:50:53;28.69;118.99
70867;HTU21D;58487;53.474;49.470;2023-08-06T08:53:21;28.75;118.99
70867;HTU21D;58487;53.474;49.470;2023-08-06T08:55:49;28.92;118.99
70867;HTU21D;58487;53.474;49.470;2023-08-06T08:58:15;29.22;118.99
70867;HTU21D;58487;53.474;49.470;2023-08-06T09:00:42;29.33;118.99
70867;HTU21D;58487;53.474;49.470;2023-08-06T09:03:08;29.21;118.99
70867;HTU21D;58487;53.474;49.470;2023-08-06T09:05:40;29.28;118.99
70867;HTU21D;58487;53.474;49.470;2023-08-06T09:08:11;29.49;118.99
70867;HTU21D;58487;53.474;49.470;2023-08-06T09:10:39;29.68;118.99
70867;HTU21D;58487;53.474;49.470;2023-08-06T09:13:06;29.63;118.99
70867;HTU21D;58487;53.474;49.470;2023-08-06T09:15:34;29.79;118.99
70867;HTU21D;58487;53.474;49.470;2023-08-06T09:18:09;29.97;118.99
70867;HTU21D;58487;53.474;49.470;2023-08-06T09:20:35;30.32;118.99
70867;HTU21D;58487;53.474;49.470;2023-08-06T09:23:07;30.27;118.99
70867;HTU21D;58487;53.474;49.470;2023-08-06T09:25:33;30.13;118.99
70867;HTU21D;58487;53.474;49.470;2023-08-06T09:28:02;30.20;118.99
70867;HTU21D;58487;53.474;49.470;2023-08-06T09:30:33;30.60;118.99
70867;HTU21D;58487;53.474;49.470;2023-08-06T09:33:00;30.95;118.99
70867;HTU21D;58487;53.474;49.470;2023-08-06T09:35:31;31.08;118.99
70867;HTU21D;58487;53.474;49.470;2023-08-06T09:38:10;31.15;118.99
70867;HTU21D;58487;53.474;49.470;2023-08-06T09:40:37;31.45;118.99
70867;HTU21D;58487;53.474;49.470;2023-08-06T09:43:04;31.68;118.99
70867;HTU21D;58487;53.474;49.470;2023-08-06T09:45:32;31.75;118.99
70867;HTU21D;58487;53.474;49.470;2023-08-06T09:48:00;31.83;118.99
70867;HTU21D;58487;53.474;49.470;2023-08-06T09:50:33;32.05;118.99
70867;HTU21D;58487;53.474;49.470;2023-08-06T09:53:00;32.18;118.99
70867;HTU21D;58487;53.474;49.470;2023-08-06T09:55:27;32.60;118.99
70867;HTU21D;58487;53.474;49.470;2023-08-06T09:57:53;31.51;118.99
70867;HTU21D;58487;53.474;49.470;2023-08-06T10:00:20;31.41;118.99
70867;HTU21D;58487;53.474;49.470;2023-08-06T10:02:46;31.76;118.99
70867;HTU21D;58487;53.474;49.470;2023-08-06T10:05:14;31.37;118.99
70867;HTU21D;58487;53.474;49.470;2023-08-06T10:07:43;31.13;118.99
70867;HTU21D;58487;53.474;49.470;2023-08-06T10:10:09;31.41;118.99
70867;HTU21D;58487;53.474;49.470;2023-08-06T10:12:47;32.03;118.99
70867;HTU21D;58487;53.474;49.470;2023-08-06T10:15:16;32.46;118.99
70867;HTU21D;58487;53.474;49.470;2023-08-06T10:17:45;32.24;118.99
70867;HTU21D;58487;53.474;49.470;2023-08-06T10:20:11;32.15;118.99
70867;HTU21D;58487;53.474;49.470;2023-08-06T10:22:42;32.46;118.99
70867;HTU21D;58487;53.474;49.470;2023-08-06T10:25:09;33.03;118.99
70867;HTU21D;58487;53.474;49.470;2023-08-06T10:32:51;31.85;118.99
70867;HTU21D;58487;53.474;49.470;2023-08-06T10:35:45;31.35;118.99
70867;HTU21D;58487;53.474;49.470;2023-08-06T10:38:22;31.18;118.99
70867;HTU21D;58487;53.474;49.470;2023-08-06T10:43:29;32.12;118.99
70867;HTU21D;58487;53.474;49.470;2023-08-06T10:45:57;32.68;118.99
70867;HTU21D;58487;53.474;49.470;2023-08-06T10:51:11;32.97;118.99
70867;HTU21D;58487;53.474;49.470;2023-08-06T10:53:41;31.86;118.99
70867;HTU21D;58487;53.474;49.470;2023-08-06T10:56:18;32.03;118.99
70867;HTU21D;58487;53.474;49.470;2023-08-06T10:58:45;32.45;118.99
70867;HTU21D;58487;53.474;49.470;2023-08-06T11:01:12;32.58;118.99
70867;HTU21D;58487;53.474;49.470;2023-08-06T11:03:38;32.74;118.99
70867;HTU21D;58487;53.474;49.470;2023-08-06T11:06:07;33.32;118.99
70867;HTU21D;58487;53.474;49.470;2023-08-06T11:08:35;33.31;118.99
70867;HTU21D;58487;53.474;49.470;2023-08-06T11:11:12;32.77;118.99
70867;HTU21D;58487;53.474;49.470;2023-08-06T11:13:46;32.25;118.99
70867;HTU21D;58487;53.474;49.470;2023-08-06T11:16:20;32.34;118.99
70867;HTU21D;58487;53.474;49.470;2023-08-06T11:18:47;32.23;118.99
70867;HTU21D;58487;53.474;49.470;2023-08-06T11:21:13;32.68;118.99
70867;HTU21D;58487;53.474;49.470;2023-08-06T11:23:41;33.05;118.99
70867;HTU21D;58487;53.474;49.470;2023-08-06T11:26:07;33.13;118.99
70867;HTU21D;58487;53.474;49.470;2023-08-06T11:28:33;33.36;118.99
70867;HTU21D;58487;53.474;49.470;2023-08-06T11:30:59;33.30;118.99
70867;HTU21D;58487;53.474;49.470;2023-08-06T11:33:29;33.31;118.99
70867;HTU21D;58487;53.474;49.470;2023-08-06T11:35:57;34.03;118.99
70867;HTU21D;58487;53.474;49.470;2023-08-06T11:38:28;33.74;118.99
70867;HTU21D;58487;53.474;49.470;2023-08-06T11:40:54;33.55;118.99
70867;HTU21D;58487;53.474;49.470;2023-08-06T11:43:21;33.85;118.99
70867;HTU21D;58487;53.474;49.470;2023-08-06T11:45:50;33.80;118.99
70867;HTU21D;58487;53.474;49.470;2023-08-06T11:48:16;33.41;118.99
70867;HTU21D;58487;53.474;49.470;2023-08-06T11:50:43;32.42;118.99
70867;HTU21D;58487;53.474;49.470;2023-08-06T11:53:12;32.89;118.99
70867;HTU21D;58487;53.474;49.470;2023-08-06T11:55:39;33.30;118.99
70867;HTU21D;58487;53.474;49.470;2023-08-06T11:58:06;34.07;118.99
70867;HTU21D;58487;53.474;49.470;2023-08-06T12:00:32;34.32;118.99
70867;HTU21D;58487;53.474;49.470;2023-08-06T12:02:58;34.83;118.99
70867;HTU21D;58487;53.474;49.470;2023-08-06T12:05:33;35.11;118.99
70867;HTU21D;58487;53.474;49.470;2023-08-06T12:08:01;34.33;118.99
70867;HTU21D;58487;53.474;49.470;2023-08-06T12:10:31;34.56;118.99
70867;HTU21D;58487;53.474;49.470;2023-08-06T12:12:57;34.05;118.99
70867;HTU21D;58487;53.474;49.470;2023-08-06T12:15:23;34.31;118.99
70867;HTU21D;58487;53.474;49.470;2023-08-06T12:17:50;33.76;118.99
70867;HTU21D;58487;53.474;49.470;2023-08-06T12:20:16;34.23;118.99
70867;HTU21D;58487;53.474;49.470;2023-08-06T12:22:42;33.97;118.99
70867;HTU21D;58487;53.474;49.470;2023-08-06T12:25:11;34.29;118.99
70867;HTU21D;58487;53.474;49.470;2023-08-06T12:27:40;34.19;118.99
70867;HTU21D;58487;53.474;49.470;2023-08-06T12:30:21;34.57;118.99
70867;HTU21D;58487;53.474;49.470;2023-08-06T12:32:47;34.76;118.99
70867;HTU21D;58487;53.474;49.470;2023-08-06T12:35:13;34.54;118.99
70867;HTU21D;58487;53.474;49.470;2023-08-06T12:37:39;34.67;118.99
70867;HTU21D;58487;53.474;49.470;2023-08-06T12:40:06;34.56;118.99
70867;HTU21D;58487;53.474;49.470;2023-08-06T12:42:32;35.15;118.99
70867;HTU21D;58487;53.474;49.470;2023-08-06T12:44:59;35.35;118.99
70867;HTU21D;58487;53.474;49.470;2023-08-06T12:47:25;35.63;118.99
70867;HTU21D;58487;53.474;49.470;2023-08-06T12:49:51;36.30;118.99
70867;HTU21D;58487;53.474;49.470;2023-08-06T12:52:17;35.73;118.99
70867;HTU21D;58487;53.474;49.470;2023-08-06T12:54:45;35.21;118.99
70867;HTU21D;58487;53.474;49.470;2023-08-06T12:57:12;34.85;118.99
70867;HTU21D;58487;53.474;49.470;2023-08-06T12:59:38;35.16;118.99
70867;HTU21D;58487;53.474;49.470;2023-08-06T13:02:05;35.06;118.99
70867;HTU21D;58487;53.474;49.470;2023-08-06T13:04:31;34.79;118.99
70867;HTU21D;58487;53.474;49.470;2023-08-06T13:06:58;35.30;118.99
70867;HTU21D;58487;53.474;49.470;2023-08-06T13:09:24;35.28;118.99
70867;HTU21D;58487;53.474;49.470;2023-08-06T13:11:51;35.13;118.99
70867;HTU21D;58487;53.474;49.470;2023-08-06T13:14:17;35.39;118.99
70867;HTU21D;58487;53.474;49.470;2023-08-06T13:16:43;35.31;118.99
70867;HTU21D;58487;53.474;49.470;2023-08-06T13:19:10;35.30;118.99
70867;HTU21D;58487;53.474;49.470;2023-08-06T13:24:08;35.04;118.99
70867;HTU21D;58487;53.474;49.470;2023-08-06T13:26:36;35.60;118.99
70867;HTU21D;58487;53.474;49.470;2023-08-06T13:29:02;35.73;118.99
70867;HTU21D;58487;53.474;49.470;2023-08-06T13:31:28;35.79;118.99
70867;HTU21D;58487;53.474;49.470;2023-08-06T13:33:56;35.30;118.99
70867;HTU21D;58487;53.474;49.470;2023-08-06T13:36:24;35.48;118.99
70867;HTU21D;58487;53.474;49.470;2023-08-06T13:38:50;36.08;118.99
70867;HTU21D;58487;53.474;49.470;2023-08-06T13:41:16;34.62;118.99
70867;HTU21D;58487;53.474;49.470;2023-08-06T13:43:43;34.85;118.99
70867;HTU21D;58487;53.474;49.470;2023-08-06T13:46:10;35.78;118.99
70867;HTU21D;58487;53.474;49.470;2023-08-06T13:48:42;35.70;118.99
70867;HTU21D;58487;53.474;49.470;2023-08-06T13:51:10;36.17;118.99
70867;HTU21D;58487;53.474;49.470;2023-08-06T13:53:40;35.85;118.99
70867;HTU21D;58487;53.474;49.470;2023-08-06T13:56:08;35.88;118.99
70867;HTU21D;58487;53.474;49.470;2023-08-06T13:58:36;35.82;118.99
70867;HTU21D;58487;53.474;49.470;2023-08-06T14:01:02;35.83;118.99
70867;HTU21D;58487;53.474;49.470;2023-08-06T14:03:28;35.63;118.99
70867;HTU21D;58487;53.474;49.470;2023-08-06T14:05:54;35.42;118.99
70867;HTU21D;58487;53.474;49.470;2023-08-06T14:08:24;36.17;118.99
70867;HTU21D;58487;53.474;49.470;2023-08-06T14:10:51;35.83;118.99
70867;HTU21D;58487;53.474;49.470;2023-08-06T14:13:17;35.73;118.99
70867;HTU21D;58487;53.474;49.470;2023-08-06T14:15:44;35.77;118.99
70867;HTU21D;58487;53.474;49.470;2023-08-06T14:18:16;35.87;118.99
70867;HTU21D;58487;53.474;49.470;2023-08-06T14:20:43;34.97;118.99
70867;HTU21D;58487;53.474;49.470;2023-08-06T14:23:11;35.63;118.99
70867;HTU21D;58487;53.474;49.470;2023-08-06T14:25:38;35.62;118.99
70867;HTU21D;58487;53.474;49.470;2023-08-06T14:28:04;35.44;118.99
70867;HTU21D;58487;53.474;49.470;2023-08-06T14:30:32;36.17;118.99
70867;HTU21D;58487;53.474;49.470;2023-08-06T14:32:59;35.92;118.99
70867;HTU21D;58487;53.474;49.470;2023-08-06T14:35:26;35.15;118.99
70867;HTU21D;58487;53.474;49.470;2023-08-06T14:37:52;35.52;118.99
70867;HTU21D;58487;53.474;49.470;2023-08-06T14:40:18;35.51;118.99
70867;HTU21D;58487;53.474;49.470;2023-08-06T14:42:45;35.93;118.99
70867;HTU21D;58487;53.474;49.470;2023-08-06T14:45:11;35.42;118.99
70867;HTU21D;58487;53.474;49.470;2023-08-06T14:47:37;34.62;118.99
70867;HTU21D;58487;53.474;49.470;2023-08-06T14:50:03;33.37;118.99
70867;HTU21D;58487;53.474;49.470;2023-08-06T14:52:29;33.06;118.99
70867;HTU21D;58487;53.474;49.470;2023-08-06T14:54:56;32.44;118.99
70867;HTU21D;58487;53.474;49.470;2023-08-06T14:57:22;31.99;118.99
70867;HTU21D;58487;53.474;49.470;2023-08-06T14:59:54;31.74;118.99
70867;HTU21D;58487;53.474;49.470;2023-08-06T15:02:20;31.83;118.99
70867;HTU21D;58487;53.474;49.470;2023-08-06T15:04:46;31.66;118.99
70867;HTU21D;58487;53.474;49.470;2023-08-06T15:07:12;31.51;118.99